Terminal Aerodrome Forecast
Issued by NWS

Home | Current Version | Previous Version | Text Only | Print | Product List | Glossary On
Versions: 1 2 3 4 5 6 7 8 9 10 11 12 13 14 15 16 17 18 19 20 21 22 23 24 25 26 27 28 29 30 31 32 33 34 35 36 37 38 39 40 41 42 43 44 45 46 47 48 49
000
FTUS41 KCTP 040602 RRA
TAFUNV
TAF
KUNV 040602Z 0406/0506 00000KT 3SM -RA BR OVC015
      TEMPO 0406/0408 1 1/2SM RA BR OVC010
     FM041400 VRB02KT 5SM BR OVC010
     FM041700 05003KT 6SM HZ OVC020
     FM042200 02003KT 5SM HZ BKN030
     FM050400 00000KT 3SM BR SCT025=

USA.gov is the U.S. government's official web portal to all federal, state and local government web resources and services.